Krusevac, Serbia
Current Conditions -  °F | °C
As of 10:30 AM on Friday 21 Nov 2014 (Local Time) from LYNI Reporting Station
Broken Clouds Broken Clouds  
Wind Chill: 39°   Ceiling: 1700
Heat Index: 45°   Visibility: 6mi
Dew Point: 41°   Wind: 10mph
Humidity: 87%   Direction: 320°NW
Pressure: 30.21"   Gusts: NA
Location:  43.58°N, 21.32°E
Report Text: LYNI 210830Z 32009KT 9999 BKN017 BKN033 07/05 Q1023 NOSIG
Loading
Personal Weather Stations






























Interactive Weather Map New forecast layout! Learn more

10-Day Weather Forecast

Advertisements
Track Severe Weather on mobile